Weather observations for the past three days for
Waycross / Ware County, Ga
| Date | Time (edt) | Wind (kph) | Vis. (km) | Weather | Sky Cond. | Temperature (ºC) | Relative Humidity | Wind Chill (°C) | Heat Index (°C) | Pressure | Precipitation (cm) | ||||||
|---|---|---|---|---|---|---|---|---|---|---|---|---|---|---|---|---|---|
| Air | Dwpt | 6 hour | altimeter (cm) | sea level (mb) | 1 hr | 3 hr | 6 hr | ||||||||||
| Max. | Min. | ||||||||||||||||
| 03 | 21:55 | Calm | 16.09 | Partly Cloudy | SCT070 | 16.5 | 10.6 | 68% | 76.4 | 0.0 | |||||||
| 03 | 21:35 | Calm | 16.09 | Mostly Cloudy | BKN070 | 17.6 | 10 | 61% | 76.4 | 0.0 | |||||||
| 03 | 21:15 | SE 7 | 16.09 | Overcast | OVC070 | 16.9 | 9.7 | 63% | 76.38 | 0.0 | |||||||
| 03 | 20:55 | Calm | 16.09 | Mostly Cloudy | BKN070 | 16.4 | 10.1 | 67% | 76.35 | 0.0 | |||||||
| 03 | 20:35 | Calm | 16.09 | Partly Cloudy | SCT070 | 17.5 | 10.1 | 62% | 76.33 | 0.0 | |||||||
| 03 | 20:15 | Calm | 16.09 | Partly Cloudy | SCT070 | 18.8 | 9.8 | 56% | 76.33 | 0.0 | |||||||
| 03 | 19:55 | Calm | 16.09 | Partly Cloudy | SCT070 | 21.2 | 5.8 | 24 | 21.1 | 37% | 76.33 | 0.0 | |||||
| 03 | 19:35 | Calm | 16.09 | Partly Cloudy | SCT070 | 22.5 | 4.7 | 31% | 76.3 | 0.0 | |||||||
| 03 | 19:15 | Calm | 16.09 | Fair | CLR | 23 | 4 | 29% | 76.3 | 0.0 | |||||||
| 03 | 18:55 | Calm | 16.09 | Fair | CLR | 23.2 | 3.9 | 28% | 76.3 | 0.0 | |||||||
| 03 | 18:35 | Calm | 16.09 | Fair | CLR | 23.5 | 4.3 | 29% | 76.3 | 0.0 | |||||||
| 03 | 18:15 | Calm | 16.09 | Fair | CLR | 23.2 | 4.2 | 29% | 76.33 | 0.0 | |||||||
| 03 | 17:55 | Calm | 16.09 | Fair | CLR | 23.5 | 4.1 | 28% | 76.33 | 0.0 | |||||||
| 03 | 17:35 | Calm | 16.09 | Fair | CLR | 23.7 | 3.9 | 28% | 76.33 | 0.0 | |||||||
| 03 | 17:15 | Calm | 16.09 | Fair | CLR | 23.1 | 4.1 | 29% | 76.33 | 0.0 | |||||||
| 03 | 16:55 | Calm | 16.09 | Fair | CLR | 23.6 | 4.3 | 29% | 76.33 | 0.0 | |||||||
| 03 | 16:35 | Calm | 16.09 | Fair | CLR | 23.3 | 4.2 | 29% | 76.35 | 0.0 | |||||||
| 03 | 16:15 | Calm | 16.09 | Fair | CLR | 23.2 | 3.9 | 28% | 76.35 | 0.0 | |||||||
| 03 | 15:55 | Calm | 16.09 | Fair | CLR | 23.3 | 4.3 | 29% | 76.38 | 0.0 | |||||||
| 03 | 15:35 | Calm | 16.09 | Fair | CLR | 23.1 | 4.7 | 30% | 76.38 | 0.0 | |||||||
| 03 | 15:15 | Calm | 16.09 | Fair | CLR | 23.1 | 5.8 | 33% | 76.43 | 0.0 | |||||||
| 03 | 14:35 | NE 6 | 16.09 | Fair | CLR | 22.5 | 5.1 | 32% | 76.48 | 0.0 | |||||||
| 03 | 14:15 | E 6 | 16.09 | Partly Cloudy | SCT060 | 22.4 | 5.6 | 34% | 76.48 | 0.0 | |||||||
| 03 | 13:55 | Calm | 16.09 | Partly Cloudy | SCT060 | 22.5 | 5.8 | 22.5 | 13.2 | 34% | 76.5 | 0.0 | |||||
| 03 | 13:35 | Calm | 16.09 | Partly Cloudy | SCT055 | 22 | 5.7 | 35% | 76.5 | 0.0 | |||||||
| 03 | 13:15 | Calm | 16.09 | Partly Cloudy | SCT055 | 21.7 | 6.2 | 37% | 76.53 | 0.0 | |||||||
| 03 | 12:55 | Calm | 16.09 | Partly Cloudy | SCT049 | 21.4 | 7.4 | 41% | 76.56 | 0.0 | |||||||
| 03 | 12:35 | Calm | 16.09 | Partly Cloudy | SCT037 SCT042 SCT049 | 20.7 | 8.3 | 45% | 76.58 | 0.0 | |||||||
| 03 | 12:15 | Calm | 16.09 | Partly Cloudy | SCT035 | 20.6 | 10.5 | 53% | 76.58 | 0.0 | |||||||
| 03 | 11:55 | Calm | 16.09 | Partly Cloudy | SCT031 | 19.9 | 11.4 | 58% | 76.58 | 0.0 | |||||||
| 03 | 11:35 | Calm | 16.09 | Fair | CLR | 19 | 11.6 | 62% | 76.58 | 0.0 | |||||||
| 03 | 11:15 | Calm | 16.09 | Fair | CLR | 17.8 | 12.3 | 70% | 76.58 | 0.0 | |||||||
| 03 | 10:55 | Calm | 16.09 | Partly Cloudy | SCT009 | 16.5 | 12.3 | 76% | 76.56 | 0.0 | |||||||
| 03 | 10:35 | Calm | 16.09 | Overcast | OVC009 | 15.9 | 13.4 | 85% | 76.58 | 0.0 | |||||||
| 03 | 10:15 | Calm | 16.09 | Overcast | OVC007 | 15 | 13.1 | 89% | 76.56 | 0.0 | |||||||
| 03 | 09:55 | Calm | 16.09 | Overcast | OVC005 | 15 | 13.4 | 90% | 76.53 | 0.0 | |||||||
| 03 | 09:35 | Calm | 16.09 | Overcast | OVC005 | 14.6 | 13.5 | 93% | 76.53 | 0.0 | |||||||
| 03 | 09:15 | Calm | 16.09 | Overcast | OVC003 | 14.2 | 13.3 | 94% | 76.53 | 0.0 | |||||||
| 03 | 08:35 | Calm | 2.41 | Fog/Mist | OVC003 | 13.5 | 12.9 | 96% | 76.5 | 0.0 | |||||||
| 03 | 08:15 | Calm | 3.22 | Fog/Mist | OVC003 | 13.2 | 12.5 | 96% | 76.5 | 0.0 | |||||||
| 03 | 07:55 | Calm | 11.27 | Overcast | OVC005 | 13.4 | 12.7 | 13.4 | 10.5 | 96% | 76.48 | 0.0 | 0.03 | ||||
| 03 | 07:35 | Calm | 6.44 | Fog/Mist | OVC007 | 13.1 | 12.5 | 96% | 76.45 | 0.0 | |||||||
| 03 | 07:15 | Calm | 1.61 | Fog/Mist | OVC002 | 12.6 | 12 | 96% | 76.45 | 0.0 | |||||||
| 03 | 06:55 | Calm | 6.44 | Fog/Mist | OVC002 | 12.2 | 11.6 | 96% | 76.43 | 0.0 | |||||||
| 03 | 06:35 | Calm | 11.27 | Overcast | OVC002 | 11.8 | 11.2 | 96% | 76.4 | 0.0 | |||||||
| 03 | 06:15 | Calm | 4.02 | Fog/Mist | OVC002 | 11.5 | 11 | 97% | 76.38 | 0.0 | |||||||
| 03 | 05:55 | Calm | 2.82 | Fog/Mist | OVC002 | 11.1 | 10.5 | 96% | 76.38 | 0.0 | 0.03 | ||||||
| 03 | 05:35 | Calm | 2.41 | Fog/Mist | OVC002 | 11 | 10.5 | 97% | 76.35 | 0.0 | 0.03 | ||||||
| 03 | 05:15 | Calm | 1.61 | Fog/Mist | OVC002 | 11.1 | 10.5 | 96% | 76.35 | 0.0 | 0.03 | ||||||
| 03 | 04:55 | Calm | 0.40 | Fog | OVC002 | 11 | 10.3 | 96% | 76.35 | 0.0 | |||||||
| 03 | 04:35 | Calm | 0.40 | Fog | OVC002 | 11 | 10.3 | 96% | 76.35 | 0.0 | |||||||
| 03 | 04:15 | Calm | 0.24 | Fog | OVC002 | 11 | 10.5 | 97% | 76.35 | 0.0 | |||||||
| 03 | 03:55 | Calm | 0.40 | Fog | OVC002 | 11 | 10.3 | 96% | 76.33 | 0.0 | |||||||
| 03 | 03:35 | Calm | 0.80 | Fog | OVC002 | 10.9 | 10.3 | 96% | 76.33 | 0.0 | |||||||
| 03 | 03:15 | Calm | 0.80 | Fog | OVC002 | 11 | 10.4 | 96% | 76.3 | 0.0 | |||||||
| 03 | 02:55 | Calm | 0.80 | Fog | OVC002 | 11.1 | 10.5 | 96% | 76.3 | 0.0 | |||||||
| 03 | 02:35 | Calm | 0.40 | Fog | OVC002 | 11.4 | 10.7 | 96% | 76.28 | 0.0 | |||||||
| 03 | 02:15 | Calm | 0.40 | Fog | OVC002 | 11.7 | 11.1 | 96% | 76.28 | 0.0 | |||||||
| 03 | 01:55 | Calm | 0.80 | Fog | OVC002 | 11.6 | 11 | 16.2 | 11.3 | 96% | 76.28 | 0.0 | |||||
| 03 | 01:35 | Calm | 2.01 | Fog/Mist | OVC002 | 11.5 | 11 | 97% | 76.28 | 0.0 | |||||||
| 03 | 01:15 | Calm | 16.09 | Overcast | BKN002 OVC039 | 12 | 11.5 | 97% | 76.28 | 0.0 | |||||||
| 03 | 00:55 | Calm | 4.83 | Fog/Mist | SCT002 BKN037 OVC043 | 12 | 11.3 | 96% | 76.25 | 0.0 | |||||||
| 03 | 00:35 | Calm | 0.80 | Fog | OVC002 | 12 | 11.4 | 96% | 76.25 | 0.0 | |||||||
| 03 | 00:15 | Calm | 1.21 | Fog/Mist | OVC002 | 12.1 | 11.5 | 96% | 76.23 | 0.0 | |||||||
| 02 | 23:55 | Calm | 0.40 | Fog | OVC002 | 12.2 | 11.6 | 96% | 76.23 | 0.0 | |||||||
| 02 | 23:35 | Calm | 2.01 | Fog/Mist | OVC002 | 12.3 | 11.6 | 96% | 76.2 | 0.0 | |||||||
| 02 | 23:15 | Calm | 0.40 | Fog | OVC002 | 12.5 | 11.8 | 96% | 76.17 | 0.0 | |||||||
| 02 | 22:55 | Calm | 0.80 | Fog | OVC002 | 12.9 | 12.3 | 96% | 76.17 | 0.0 | |||||||
| 02 | 22:35 | Calm | 1.21 | Fog/Mist | VV005 | 13 | 12.3 | 96% | 76.15 | 0.0 | |||||||
| 02 | 22:15 | Calm | 4.83 | Fog/Mist | CLR | 13.2 | 12.6 | 96% | 76.15 | 0.0 | |||||||
| 02 | 21:55 | Calm | 0.80 | Fog | BKN002 | 13.5 | 12.8 | 96% | 76.12 | 0.0 | |||||||
| 02 | 21:35 | Calm | 2.01 | Fog/Mist | VV007 | 13.6 | 12.8 | 95% | 76.07 | 0.0 | |||||||
| 02 | 21:15 | Calm | 2.01 | Fog/Mist | VV007 | 14 | 13.3 | 96% | 76.07 | 0.0 | |||||||
| 02 | 20:55 | Calm | 16.09 | Fair | CLR | 14 | 13.2 | 95% | 76.07 | 0.0 | |||||||
| 02 | 20:35 | Calm | 16.09 | Fair | CLR | 15.4 | 13.7 | 90% | 76.05 | 0.0 | |||||||
| 02 | 20:15 | Calm | 16.09 | Fair | CLR | 15.7 | 13.6 | 87% | 76.02 | 0.0 | |||||||
| 02 | 19:35 | Calm | 16.09 | Partly Cloudy | SCT047 | 16.7 | 14 | 84% | 75.97 | 0.0 | |||||||
| 02 | 19:15 | Calm | 16.09 | Overcast | BKN012 BKN016 OVC047 | 16.6 | 14.4 | 87% | 75.95 | 0.0 | |||||||
| 02 | 18:55 | Calm | 16.09 | Overcast | BKN012 OVC021 | 17 | 14.8 | 87% | 75.95 | 0.0 | |||||||
| 02 | 18:35 | Calm | 16.09 | Overcast | SCT010 BKN019 OVC037 | 17 | 14.8 | 87% | 75.95 | 0.0 | |||||||
| 02 | 18:15 | Calm | 16.09 | Overcast | SCT010 BKN019 OVC039 | 17 | 15.4 | 90% | 75.92 | 0.0 | |||||||
| 02 | 17:55 | Calm | 11.27 | Overcast | BKN007 BKN011 OVC015 | 16.5 | 14.8 | 90% | 75.92 | 0.0 | |||||||
| 02 | 17:35 | Calm | 6.44 | Fog/Mist | OVC007 | 16.2 | 15 | 93% | 75.9 | 0.0 | |||||||
| 02 | 17:15 | N 9 | 8.05 | Fog/Mist | BKN007 BKN011 OVC020 | 16.2 | 14.8 | 91% | 75.9 | 0.0 | |||||||
| 02 | 16:35 | Calm | 16.09 | Overcast | OVC009 | 16.5 | 14.4 | 88% | 75.84 | 0.0 | |||||||
| 02 | 16:15 | Calm | 16.09 | Overcast | OVC009 | 16.2 | 14.4 | 89% | 75.84 | 0.0 | |||||||
| 02 | 15:55 | N 7 | 16.09 | Overcast | OVC009 | 16.5 | 14.5 | 88% | 75.84 | 0.0 | |||||||
| 02 | 15:35 | N 6 | 16.09 | Overcast | OVC009 | 16.5 | 14.6 | 89% | 75.84 | 0.0 | |||||||
| 02 | 15:15 | N 6 | 16.09 | Overcast | OVC007 | 16.2 | 14.7 | 91% | 75.82 | 0.0 | |||||||
| 02 | 14:35 | Calm | 16.09 | Rain | OVC005 | 16.2 | 14.9 | 92% | 75.84 | 0.0 | 0.08 | ||||||
| 02 | 14:15 | Calm | 11.27 | Light Rain | OVC007 | 16 | 14.6 | 91% | 75.87 | 0.0 | 0.05 | ||||||
| 02 | 13:55 | Calm | 11.27 | Rain | OVC005 | 15.7 | 14.5 | 16.3 | 15.1 | 93% | 75.9 | 0.0 | 0.03 | 2.72 | |||
| 02 | 13:35 | Calm | 16.09 | Overcast | OVC005 | 16 | 14.7 | 92% | 75.84 | 0.0 | |||||||
| 02 | 13:15 | Calm | 16.09 | Light Drizzle | OVC005 | 16.1 | 14.9 | 93% | 75.82 | 0.0 | |||||||
| 02 | 12:55 | Calm | 16.09 | Light Rain | OVC005 | 16 | 14.8 | 93% | 75.79 | 0.0 | 0.03 | ||||||
| 02 | 12:35 | Calm | 16.09 | Overcast | OVC005 | 16 | 14.8 | 93% | 75.82 | 0.0 | |||||||
| 02 | 12:15 | Calm | 16.09 | Overcast | OVC005 | 15.9 | 14.7 | 93% | 75.82 | 0.0 | |||||||
| 02 | 11:55 | Calm | 16.09 | Rain | OVC003 | 15.7 | 14.6 | 93% | 75.82 | 0.0 | 0.41 | ||||||
| 02 | 11:35 | Calm | 3.22 | Rain | OVC003 | 15.5 | 14.5 | 94% | 75.84 | 0.0 | 0.38 | ||||||
| 02 | 11:15 | Calm | 11.27 | Rain | BKN003 BKN017 OVC050 | 15.4 | 14.5 | 94% | 75.87 | 0.0 | 0.08 | ||||||
| 02 | 10:55 | Calm | 6.44 | Rain | BKN003 BKN024 OVC090 | 15.3 | 14.5 | 95% | 75.84 | 0.0 | 0.53 | 2.26 | |||||
| 02 | 10:35 | Calm | 3.22 | Rain | OVC003 | 15.1 | 14.2 | 94% | 75.82 | 0.0 | 0.38 | ||||||
| 02 | 10:15 | Calm | 16.09 | Rain | BKN003 BKN007 OVC043 | 15.3 | 14.4 | 94% | 75.9 | 0.0 | 0.03 | ||||||
| 02 | 09:55 | Calm | 6.44 | Heavy Rain | BKN003 BKN008 OVC045 | 15.1 | 14.2 | 94% | 75.82 | 0.0 | 1.04 | ||||||
| 02 | 09:35 | Calm | 3.22 | Heavy Rain | BKN003 BKN034 OVC046 | 15.1 | 14.2 | 94% | 75.92 | 0.0 | 0.76 | ||||||
| 02 | 08:55 | Calm | 4.02 | Heavy Rain | BKN003 BKN025 OVC050 | 15.2 | 14.3 | 94% | 75.92 | 0.0 | 0.64 | ||||||
| 02 | 08:35 | Calm | 4.02 | Heavy Rain | BKN003 BKN008 OVC039 | 15.2 | 14.3 | 94% | 75.9 | 0.0 | 0.28 | ||||||
| 02 | 08:15 | Calm | 16.09 | Rain | BKN003 OVC040 | 15.2 | 14.3 | 94% | 75.79 | 0.0 | 0.03 | ||||||
| 02 | 07:55 | Calm | 16.09 | Light Rain | BKN005 OVC042 | 15 | 14.1 | 16.7 | 15 | 94% | 75.82 | 0.0 | 0.53 | 0.74 | |||
| 02 | 07:35 | Calm | 8.05 | Rain | SCT005 BKN037 OVC042 | 15 | 14.1 | 94% | 75.82 | 0.0 | 0.48 | ||||||
| 02 | 07:15 | Calm | 6.44 | Heavy Rain | SCT007 OVC023 | 15.1 | 14 | 93% | 75.84 | 0.0 | 0.33 | ||||||
| 02 | 06:55 | Calm | 16.09 | Rain | BKN005 BKN009 OVC021 | 15.1 | 14 | 93% | 75.82 | 0.0 | 0.13 | ||||||
| 02 | 06:35 | Calm | 11.27 | Light Rain | OVC005 | 15.5 | 14.3 | 93% | 75.79 | 0.0 | 0.05 | ||||||
| 02 | 06:15 | Calm | 16.09 | Light Rain | OVC005 | 15.7 | 14.5 | 93% | 75.82 | 0.0 | |||||||
| 02 | 05:55 | Calm | 16.09 | Drizzle | BKN005 OVC008 | 15.7 | 14.6 | 93% | 75.74 | 0.0 | |||||||
| 02 | 05:35 | Calm | 16.09 | Rain | OVC005 | 16 | 15 | 94% | 75.74 | 0.0 | |||||||
| 02 | 05:15 | Calm | 16.09 | Overcast | OVC005 | 16.2 | 15 | 93% | 75.77 | 0.0 | |||||||
| 02 | 04:55 | Calm | 16.09 | Drizzle | OVC005 | 16.1 | 15 | 93% | 75.74 | 0.0 | 0.08 | 0.08 | |||||
| 02 | 04:35 | Calm | 11.27 | Light Rain | BKN005 OVC029 | 16.1 | 15 | 93% | 75.74 | 0.0 | 0.05 | ||||||
| 02 | 04:15 | NE 9 | 16.09 | Rain | SCT007 OVC029 | 16.3 | 14.9 | 91% | 75.72 | 0.0 | |||||||
| 02 | 03:55 | Calm | 16.09 | Overcast | SCT007 OVC029 | 16.4 | 15 | 92% | 75.82 | 0.0 | |||||||
| 02 | 03:35 | Calm | 16.09 | Overcast | SCT007 OVC033 | 16.4 | 15 | 92% | 75.84 | 0.0 | |||||||
| 02 | 03:15 | Calm | 16.09 | Overcast | OVC033 | 16.5 | 14.9 | 90% | 75.9 | 0.0 | |||||||
| 02 | 02:55 | Calm | 16.09 | Overcast | OVC035 | 16.6 | 15 | 90% | 75.9 | 0.0 | |||||||
| 02 | 02:35 | Calm | 16.09 | Overcast | BKN037 OVC044 | 16.6 | 15 | 90% | 75.92 | 0.0 | |||||||
| 02 | 02:15 | Calm | 16.09 | Light Rain | BKN039 BKN047 OVC060 | 16.7 | 15 | 90% | 75.92 | 0.0 | |||||||
| 02 | 01:55 | Calm | 16.09 | Overcast | SCT049 OVC060 | 16.7 | 15 | 17.8 | 16.5 | 90% | 75.92 | 0.0 | 0.03 | ||||
| 02 | 01:35 | Calm | 16.09 | Light Rain | BKN030 OVC060 | 16.7 | 15.2 | 91% | 75.95 | 0.0 | |||||||
| 02 | 01:15 | Calm | 16.09 | Light Drizzle | BKN030 OVC065 | 16.5 | 15.1 | 92% | 75.97 | 0.0 | |||||||
| 02 | 00:55 | Calm | 16.09 | Light Drizzle | SCT030 OVC065 | 17 | 15.1 | 89% | 75.97 | 0.0 | |||||||
| 02 | 00:35 | Calm | 16.09 | Light Rain | OVC075 | 17 | 14.9 | 88% | 75.95 | 0.0 | |||||||
| 02 | 00:15 | Calm | 16.09 | Overcast | OVC075 | 17 | 14.4 | 85% | 75.97 | 0.0 | |||||||
| 01 | 23:55 | Calm | 16.09 | Light Rain | BKN075 OVC085 | 17 | 14.9 | 88% | 75.95 | 0.0 | |||||||
| 01 | 23:35 | Calm | 16.09 | Mostly Cloudy | SCT075 SCT095 BKN120 | 16.8 | 14.7 | 88% | 75.95 | 0.0 | |||||||
| 01 | 23:15 | Calm | 16.09 | Partly Cloudy | SCT075 SCT120 | 16.8 | 14.5 | 86% | 75.9 | 0.0 | |||||||
| 01 | 22:55 | Calm | 16.09 | Mostly Cloudy | BKN075 | 16.6 | 14.7 | 89% | 75.92 | 0.0 | 0.03 | ||||||
| 01 | 22:35 | Calm | 16.09 | Partly Cloudy | SCT075 SCT090 SCT110 | 16.5 | 14.6 | 89% | 75.95 | 0.0 | |||||||
| 01 | 22:15 | Calm | 16.09 | Rain | SCT120 | 17 | 14.5 | 85% | 75.97 | 0.0 | |||||||
| 01 | 21:55 | Calm | 16.09 | Light Rain | BKN120 | 17.3 | 14.3 | 83% | 75.95 | 0.0 | |||||||
| 01 | 21:35 | Calm | 16.09 | Partly Cloudy | SCT120 | 17 | 14.5 | 85% | 75.9 | 0.0 | |||||||
| 01 | 21:15 | Calm | 16.09 | Partly Cloudy | SCT120 | 17 | 14.8 | 87% | 75.9 | 0.0 | |||||||
| 01 | 20:55 | Calm | 16.09 | Light Rain | BKN110 | 17.1 | 14.9 | 87% | 75.87 | 0.0 | 0.03 | ||||||
| 01 | 20:35 | Calm | 16.09 | Light Rain | OVC110 | 17.3 | 15.5 | 89% | 75.92 | 0.0 | 0.03 | ||||||
| 01 | 20:15 | Calm | 16.09 | Light Rain | OVC110 | 17.8 | 15.5 | 87% | 75.97 | 0.0 | |||||||
| 01 | 19:55 | Calm | 16.09 | Rain | OVC120 | 17.7 | 15.1 | 26.5 | 17.7 | 85% | 75.95 | 0.0 | 0.03 | 0.03 | |||
| 01 | 19:35 | Calm | 16.09 | Light Rain | BKN120 | 18.2 | 14.6 | 80% | 75.95 | 0.0 | |||||||
| 01 | 19:15 | Calm | 16.09 | Mostly Cloudy | SCT075 SCT095 BKN110 | 19 | 13.5 | 71% | 75.9 | 0.0 | |||||||
| 01 | 18:55 | Calm | 16.09 | Mostly Cloudy | SCT095 BKN110 | 19.2 | 13 | 67% | 75.87 | 0.0 | |||||||
| 01 | 18:35 | Calm | 16.09 | Partly Cloudy | SCT046 SCT085 SCT110 | 19.6 | 12.3 | 63% | 75.87 | 0.0 | |||||||
| 01 | 18:15 | Calm | 16.09 | Mostly Cloudy | BKN046 | 19.6 | 12.9 | 65% | 75.87 | 0.0 | |||||||
| 01 | 17:55 | Calm | 16.09 | Overcast | OVC048 | 20 | 14.1 | 69% | 75.9 | 0.0 | |||||||
| 01 | 17:35 | N 19 | 16.09 | Overcast | OVC050 | 20.3 | 14.8 | 71% | 75.92 | 0.0 | |||||||
| 01 | 17:15 | N 19 G 28 | 16.09 | Overcast | OVC050 | 20.9 | 14.5 | 67% | 75.9 | 0.0 | |||||||
| 01 | 16:55 | N 19 | 16.09 | Mostly Cloudy | BKN060 BKN075 BKN080 | 22.6 | 12.6 | 53% | 75.9 | 0.0 | |||||||
| 01 | 16:35 | N 24 | 16.09 | Mostly Cloudy | SCT047 SCT060 BKN075 | 23.4 | 11.2 | 46% | 75.9 | 0.0 | |||||||
| 01 | 16:15 | N 28 G 33 | 16.09 | Overcast | SCT047 BKN060 OVC070 | 24 | 11.9 | 47% | 25 | 75.9 | 0.0 | ||||||
| 01 | 15:55 | Calm | 16.09 | Mostly Cloudy | BKN070 | 23.8 | 12.2 | 48% | 75.84 | 0.0 | |||||||
| 01 | 15:35 | N 13 | 16.09 | Partly Cloudy | SCT065 | 25.2 | 12.5 | 45% | 26 | 75.9 | 0.0 | ||||||
| 01 | 15:15 | N 19 | 16.09 | Mostly Cloudy | BKN042 | 26 | 12.5 | 43% | 26 | 75.9 | 0.0 | ||||||
| 01 | 14:55 | Calm | 16.09 | Overcast | OVC042 | 25 | 12.7 | 46% | 26 | 75.92 | 0.0 | ||||||
| 01 | 14:35 | Calm | 16.09 | Overcast | OVC042 | 25.3 | 12.6 | 45% | 26 | 75.95 | 0.0 | ||||||
| 01 | 14:15 | Calm | 16.09 | Mostly Cloudy | BKN044 BKN070 | 26 | 12 | 42% | 26 | 75.92 | 0.0 | ||||||
| 01 | 13:55 | Calm | 16.09 | Mostly Cloudy | BKN060 BKN110 | 26.1 | 11.5 | 26.1 | 19.3 | 40% | 26 | 75.95 | 0.0 | ||||
| 01 | 13:35 | Calm | 16.09 | Overcast | SCT037 BKN048 OVC070 | 24.4 | 11.1 | 43% | 26 | 75.95 | 0.0 | ||||||
| 01 | 13:15 | Calm | 16.09 | Overcast | BKN037 OVC050 | 24.1 | 11.7 | 46% | 25 | 76 | 0.0 | ||||||
| 01 | 12:55 | Calm | 16.09 | Light Drizzle | BKN050 BKN065 BKN090 | 23.7 | 12.6 | 50% | 76 | 0.0 | |||||||
| 01 | 12:35 | Calm | 16.09 | Mostly Cloudy | BKN055 BKN070 BKN090 | 23.5 | 12.5 | 50% | 76 | 0.0 | |||||||
| 01 | 12:15 | Calm | 16.09 | Mostly Cloudy | SCT055 BKN070 | 24.1 | 12.5 | 48% | 25 | 76.02 | 0.0 | ||||||
| 01 | 11:55 | Calm | 16.09 | Mostly Cloudy | BKN070 BKN085 | 23.4 | 12.5 | 50% | 76.02 | 0.0 | |||||||
| 01 | 11:35 | Calm | 16.09 | Mostly Cloudy | SCT042 BKN065 BKN085 | 22.5 | 12.6 | 54% | 76.02 | 0.0 | |||||||
| 01 | 11:15 | Calm | 16.09 | Overcast | SCT042 BKN065 OVC085 | 21.7 | 12.5 | 56% | 76.05 | 0.0 | |||||||
| 01 | 10:55 | Calm | 16.09 | Overcast | SCT044 SCT050 OVC065 | 21.4 | 12.5 | 57% | 76.02 | 0.0 | |||||||
| 01 | 10:35 | Calm | 16.09 | Overcast | SCT048 OVC065 | 21.1 | 12.4 | 58% | 76.02 | 0.0 | |||||||
| 01 | 10:15 | Calm | 16.09 | Overcast | SCT041 BKN065 OVC075 | 20.5 | 12.2 | 59% | 76 | 0.0 | |||||||
| 01 | 09:55 | Calm | 16.09 | Mostly Cloudy | SCT041 BKN055 BKN110 | 20.4 | 12.1 | 59% | 76 | 0.0 | |||||||
| 01 | 09:35 | Calm | 16.09 | Overcast | BKN055 BKN090 OVC110 | 20.3 | 12.2 | 60% | 76 | 0.0 | |||||||
| 01 | 09:15 | Calm | 16.09 | Overcast | BKN055 BKN090 OVC110 | 19.9 | 12.2 | 61% | 76 | 0.0 | |||||||
| 01 | 08:55 | Calm | 16.09 | Overcast | SCT060 OVC110 | 19.9 | 12.8 | 64% | 76 | 0.0 | |||||||
| 01 | 08:35 | Calm | 16.09 | Overcast | BKN060 OVC120 | 19.7 | 12.5 | 63% | 75.97 | 0.0 | |||||||
| 01 | 08:15 | Calm | 16.09 | Overcast | BKN070 BKN090 OVC120 | 19.5 | 12.9 | 66% | 75.97 | 0.0 | |||||||
| 01 | 07:55 | Calm | 16.09 | Overcast | SCT038 SCT070 OVC100 | 19.2 | 13.1 | 20 | 17.9 | 68% | 75.95 | 0.0 | |||||
| 01 | 07:35 | Calm | 16.09 | Overcast | SCT038 BKN075 OVC110 | 19 | 13.6 | 71% | 75.95 | 0.0 | |||||||
| 01 | 07:15 | Calm | 16.09 | Overcast | SCT038 BKN065 OVC075 | 19.1 | 13.5 | 70% | 75.92 | 0.0 | |||||||
| 01 | 06:55 | Calm | 16.09 | Overcast | SCT040 BKN065 OVC100 | 19 | 13.5 | 71% | 75.9 | 0.0 | |||||||
| 01 | 06:35 | Calm | 16.09 | Overcast | SCT038 BKN075 OVC110 | 19.2 | 13.2 | 68% | 75.92 | 0.0 | |||||||
| 01 | 06:15 | Calm | 16.09 | Overcast | SCT075 BKN085 OVC110 | 18.8 | 13.8 | 73% | 75.87 | 0.0 | |||||||
| 01 | 05:55 | Calm | 16.09 | Mostly Cloudy | BKN085 | 18.8 | 14 | 74% | 75.84 | 0.0 | |||||||
| 01 | 05:35 | Calm | 16.09 | Partly Cloudy | SCT085 SCT120 | 18.7 | 14 | 74% | 75.84 | 0.0 | |||||||
| 01 | 05:15 | Calm | 16.09 | Fair | CLR | 18.6 | 14.1 | 75% | 75.84 | 0.0 | |||||||
| 01 | 04:55 | Calm | 16.09 | Fair | CLR | 18.4 | 14.4 | 78% | 75.82 | 0.0 | |||||||
| 01 | 04:35 | Calm | 16.09 | Fair | CLR | 18.6 | 14.7 | 78% | 75.82 | 0.0 | |||||||
| 01 | 04:15 | Calm | 16.09 | Fair | CLR | 18.6 | 14.8 | 79% | 75.84 | 0.0 | |||||||
| 01 | 03:55 | Calm | 16.09 | Fair | CLR | 18.5 | 14.8 | 79% | 75.84 | 0.0 | |||||||
| 01 | 03:35 | Calm | 16.09 | Fair | CLR | 18.1 | 14.7 | 81% | 75.84 | 0.0 | |||||||
| 01 | 03:15 | Calm | 16.09 | Fair | CLR | 18.1 | 14.3 | 79% | 75.84 | 0.0 | |||||||
| 01 | 02:55 | Calm | 16.09 | Fair | CLR | 18.7 | 14.4 | 76% | 75.84 | 0.0 | |||||||
| 01 | 02:35 | Calm | 16.09 | Fair | CLR | 18.8 | 14.4 | 76% | 75.84 | 0.0 | |||||||
| 01 | 02:15 | Calm | 16.09 | Fair | CLR | 19.4 | 14.1 | 72% | 75.87 | 0.0 | |||||||
| 01 | 01:55 | Calm | 16.09 | Fair | CLR | 19.1 | 14.2 | 27 | 19 | 73% | 75.84 | 0.0 | |||||
| 01 | 01:35 | Calm | 16.09 | Fair | CLR | 20.1 | 14.3 | 69% | 75.9 | 0.0 | |||||||
| 01 | 01:15 | Calm | 16.09 | Fair | CLR | 20.5 | 14.3 | 68% | 75.9 | 0.0 | |||||||
| 01 | 00:55 | Calm | 16.09 | Fair | CLR | 20.2 | 14.1 | 68% | 75.9 | 0.0 | |||||||
| 01 | 00:35 | Calm | 16.09 | Fair | CLR | 20.6 | 14.2 | 67% | 75.9 | 0.0 | |||||||
| 01 | 00:15 | Calm | 16.09 | Fair | CLR | 21.4 | 14.3 | 64% | 75.9 | 0.0 | |||||||
| 30 | 23:55 | Calm | 16.09 | Fair | CLR | 22 | 14 | 61% | 75.87 | 0.0 | |||||||
| 30 | 23:35 | Calm | 16.09 | Fair | CLR | 22.4 | 14 | 59% | 75.87 | 0.0 | |||||||
| 30 | 23:15 | Calm | 16.09 | Fair | CLR | 22.1 | 14 | 60% | 75.9 | 0.0 | |||||||
| 30 | 22:55 | Calm | 16.09 | Fair | CLR | 22.4 | 14 | 59% | 75.9 | 0.0 | |||||||
| 30 | 22:35 | Calm | 16.09 | Partly Cloudy | SCT085 | 23.5 | 14 | 55% | 75.87 | 0.0 | |||||||
| Date | Time (edt) | Wind (kph) | Vis. (km) | Weather | Sky Cond. | Air | Dwpt | Max. | Min. | Relative Humidity | Wind Chill (°C) | Heat Index (°C) | altimeter (cm) | sea level (mb) | 1 hr | 3 hr | 6 hr |
| 6 hour | |||||||||||||||||
| Temperature (ºC) | Pressure | Precipitation (cm) | |||||||||||||||